sensor_id;sensor_type;location;lat;lon;timestamp;temperature;humidity
40323;DHT22;26030;51.164;17.100;2023-02-21T00:04:37;22.00;57.90
40323;DHT22;26030;51.164;17.100;2023-02-21T00:10:00;21.80;59.10
40323;DHT22;26030;51.164;17.100;2023-02-21T00:15:23;21.90;58.40
40323;DHT22;26030;51.164;17.100;2023-02-21T00:20:46;21.90;58.30
40323;DHT22;26030;51.164;17.100;2023-02-21T00:26:09;22.00;57.70
40323;DHT22;26030;51.164;17.100;2023-02-21T00:31:31;22.00;57.60
40323;DHT22;26030;51.164;17.100;2023-02-21T00:36:54;22.00;57.40
40323;DHT22;26030;51.164;17.100;2023-02-21T00:42:17;21.90;57.30
40323;DHT22;26030;51.164;17.100;2023-02-21T00:47:39;21.90;57.10
40323;DHT22;26030;51.164;17.100;2023-02-21T00:53:02;21.90;57.20
40323;DHT22;26030;51.164;17.100;2023-02-21T00:58:25;21.80;57.00
40323;DHT22;26030;51.164;17.100;2023-02-21T01:03:48;21.80;57.00
40323;DHT22;26030;51.164;17.100;2023-02-21T01:09:12;21.70;57.40
40323;DHT22;26030;51.164;17.100;2023-02-21T01:14:34;21.70;57.10
40323;DHT22;26030;51.164;17.100;2023-02-21T01:19:58;21.60;57.10
40323;DHT22;26030;51.164;17.100;2023-02-21T01:25:22;21.50;57.90
40323;DHT22;26030;51.164;17.100;2023-02-21T01:30:44;21.50;57.50
40323;DHT22;26030;51.164;17.100;2023-02-21T01:36:08;21.50;57.50
40323;DHT22;26030;51.164;17.100;2023-02-21T01:41:31;21.50;57.00
40323;DHT22;26030;51.164;17.100;2023-02-21T01:46:53;21.50;57.00
40323;DHT22;26030;51.164;17.100;2023-02-21T01:52:16;21.50;56.80
40323;DHT22;26030;51.164;17.100;2023-02-21T01:57:41;21.40;57.00
40323;DHT22;26030;51.164;17.100;2023-02-21T02:03:08;21.40;57.20
40323;DHT22;26030;51.164;17.100;2023-02-21T02:08:32;21.90;56.20
40323;DHT22;26030;51.164;17.100;2023-02-21T02:14:02;22.30;55.10
40323;DHT22;26030;51.164;17.100;2023-02-21T02:45:53;23.20;53.00
40323;DHT22;26030;51.164;17.100;2023-02-21T02:51:02;23.30;52.80
40323;DHT22;26030;51.164;17.100;2023-02-21T02:56:13;23.40;52.60
40323;DHT22;26030;51.164;17.100;2023-02-21T03:17:08;23.60;52.20
40323;DHT22;26030;51.164;17.100;2023-02-21T03:22:14;23.70;51.90
40323;DHT22;26030;51.164;17.100;2023-02-21T03:27:22;23.60;52.00
40323;DHT22;26030;51.164;17.100;2023-02-21T03:32:48;23.60;51.70
40323;DHT22;26030;51.164;17.100;2023-02-21T03:37:56;23.40;52.00
40323;DHT22;26030;51.164;17.100;2023-02-21T03:43:02;23.30;52.50
40323;DHT22;26030;51.164;17.100;2023-02-21T03:48:23;23.10;52.60
40323;DHT22;26030;51.164;17.100;2023-02-21T03:53:55;23.10;52.60
40323;DHT22;26030;51.164;17.100;2023-02-21T03:59:05;23.00;52.80
40323;DHT22;26030;51.164;17.100;2023-02-21T04:04:09;23.00;52.80
40323;DHT22;26030;51.164;17.100;2023-02-21T04:09:14;22.90;53.10
40323;DHT22;26030;51.164;17.100;2023-02-21T04:14:18;22.90;53.00
40323;DHT22;26030;51.164;17.100;2023-02-21T04:19:24;22.70;53.10
40323;DHT22;26030;51.164;17.100;2023-02-21T04:24:28;22.60;53.40
40323;DHT22;26030;51.164;17.100;2023-02-21T04:29:32;22.50;53.60
40323;DHT22;26030;51.164;17.100;2023-02-21T04:34:37;22.50;53.80
40323;DHT22;26030;51.164;17.100;2023-02-21T04:39:41;22.50;54.50
40323;DHT22;26030;51.164;17.100;2023-02-21T04:44:46;22.50;53.80
40323;DHT22;26030;51.164;17.100;2023-02-21T04:50:03;22.50;54.20
40323;DHT22;26030;51.164;17.100;2023-02-21T04:55:08;22.50;54.00
40323;DHT22;26030;51.164;17.100;2023-02-21T05:00:14;22.40;53.80
40323;DHT22;26030;51.164;17.100;2023-02-21T05:05:18;22.40;54.10
40323;DHT22;26030;51.164;17.100;2023-02-21T05:10:23;22.30;54.30
40323;DHT22;26030;51.164;17.100;2023-02-21T05:15:39;22.30;54.90
40323;DHT22;26030;51.164;17.100;2023-02-21T05:20:43;22.30;54.40
40323;DHT22;26030;51.164;17.100;2023-02-21T05:25:47;22.20;54.70
40323;DHT22;26030;51.164;17.100;2023-02-21T05:30:51;22.10;54.70
40323;DHT22;26030;51.164;17.100;2023-02-21T05:35:55;22.10;54.60
40323;DHT22;26030;51.164;17.100;2023-02-21T05:41:00;22.10;55.10
40323;DHT22;26030;51.164;17.100;2023-02-21T05:46:04;22.00;55.20
40323;DHT22;26030;51.164;17.100;2023-02-21T05:51:08;22.00;55.30
40323;DHT22;26030;51.164;17.100;2023-02-21T05:56:13;21.90;55.30
40323;DHT22;26030;51.164;17.100;2023-02-21T06:01:17;21.80;55.80
40323;DHT22;26030;51.164;17.100;2023-02-21T06:06:22;21.80;55.30
40323;DHT22;26030;51.164;17.100;2023-02-21T06:11:28;21.80;55.30
40323;DHT22;26030;51.164;17.100;2023-02-21T06:16:36;21.80;55.40
40323;DHT22;26030;51.164;17.100;2023-02-21T06:21:41;21.80;55.20
40323;DHT22;26030;51.164;17.100;2023-02-21T06:26:45;21.80;55.20
40323;DHT22;26030;51.164;17.100;2023-02-21T06:31:49;22.20;54.80
40323;DHT22;26030;51.164;17.100;2023-02-21T06:37:00;22.50;54.10
40323;DHT22;26030;51.164;17.100;2023-02-21T06:42:04;22.60;53.50
40323;DHT22;26030;51.164;17.100;2023-02-21T06:47:09;22.90;53.60
40323;DHT22;26030;51.164;17.100;2023-02-21T06:52:13;23.00;52.70
40323;DHT22;26030;51.164;17.100;2023-02-21T06:57:17;23.10;52.40
40323;DHT22;26030;51.164;17.100;2023-02-21T07:02:22;23.10;52.40
40323;DHT22;26030;51.164;17.100;2023-02-21T07:07:26;23.20;52.60
40323;DHT22;26030;51.164;17.100;2023-02-21T07:12:30;23.30;52.60
40323;DHT22;26030;51.164;17.100;2023-02-21T07:17:34;23.30;52.60
40323;DHT22;26030;51.164;17.100;2023-02-21T07:22:38;23.30;53.10
40323;DHT22;26030;51.164;17.100;2023-02-21T07:27:42;23.20;52.80
40323;DHT22;26030;51.164;17.100;2023-02-21T07:32:47;23.20;53.10
40323;DHT22;26030;51.164;17.100;2023-02-21T07:37:51;23.40;52.70
40323;DHT22;26030;51.164;17.100;2023-02-21T07:42:55;23.50;52.70
40323;DHT22;26030;51.164;17.100;2023-02-21T07:47:58;23.40;52.90
40323;DHT22;26030;51.164;17.100;2023-02-21T07:53:03;23.40;53.30
40323;DHT22;26030;51.164;17.100;2023-02-21T07:58:07;23.30;53.90
40323;DHT22;26030;51.164;17.100;2023-02-21T08:03:11;23.20;53.80
40323;DHT22;26030;51.164;17.100;2023-02-21T08:08:16;23.20;54.00
40323;DHT22;26030;51.164;17.100;2023-02-21T08:13:20;23.10;54.30
40323;DHT22;26030;51.164;17.100;2023-02-21T08:18:24;23.00;54.60
40323;DHT22;26030;51.164;17.100;2023-02-21T08:23:29;22.90;54.40
40323;DHT22;26030;51.164;17.100;2023-02-21T08:28:33;22.80;54.70
40323;DHT22;26030;51.164;17.100;2023-02-21T08:33:37;22.70;55.00
40323;DHT22;26030;51.164;17.100;2023-02-21T08:38:41;22.60;55.80
40323;DHT22;26030;51.164;17.100;2023-02-21T08:43:45;22.60;55.60
40323;DHT22;26030;51.164;17.100;2023-02-21T08:48:49;22.50;56.10
40323;DHT22;26030;51.164;17.100;2023-02-21T08:53:53;22.50;55.60
40323;DHT22;26030;51.164;17.100;2023-02-21T08:58:58;22.40;55.70
40323;DHT22;26030;51.164;17.100;2023-02-21T09:04:03;22.30;55.80
40323;DHT22;26030;51.164;17.100;2023-02-21T09:09:07;22.20;55.80
40323;DHT22;26030;51.164;17.100;2023-02-21T09:14:12;22.10;55.90
40323;DHT22;26030;51.164;17.100;2023-02-21T09:19:17;22.20;55.80
40323;DHT22;26030;51.164;17.100;2023-02-21T09:24:22;22.20;55.60
40323;DHT22;26030;51.164;17.100;2023-02-21T09:29:28;22.10;55.70
40323;DHT22;26030;51.164;17.100;2023-02-21T09:34:48;22.00;55.70
40323;DHT22;26030;51.164;17.100;2023-02-21T09:39:52;22.00;55.40
40323;DHT22;26030;51.164;17.100;2023-02-21T09:44:56;22.00;55.80
40323;DHT22;26030;51.164;17.100;2023-02-21T09:50:03;21.90;55.80
40323;DHT22;26030;51.164;17.100;2023-02-21T10:00:36;21.90;55.60
40323;DHT22;26030;51.164;17.100;2023-02-21T10:05:45;21.90;55.50
40323;DHT22;26030;51.164;17.100;2023-02-21T10:10:57;21.90;55.60
40323;DHT22;26030;51.164;17.100;2023-02-21T10:16:11;22.00;55.40
40323;DHT22;26030;51.164;17.100;2023-02-21T10:21:33;22.00;55.00
40323;DHT22;26030;51.164;17.100;2023-02-21T10:26:41;22.10;54.90
40323;DHT22;26030;51.164;17.100;2023-02-21T10:31:53;22.20;54.80
40323;DHT22;26030;51.164;17.100;2023-02-21T10:37:05;22.20;54.70
40323;DHT22;26030;51.164;17.100;2023-02-21T10:42:46;22.20;54.60
40323;DHT22;26030;51.164;17.100;2023-02-21T10:48:14;22.20;54.50
40323;DHT22;26030;51.164;17.100;2023-02-21T10:53:23;22.10;54.90
40323;DHT22;26030;51.164;17.100;2023-02-21T10:58:29;22.00;54.60
40323;DHT22;26030;51.164;17.100;2023-02-21T11:03:33;22.00;55.00
40323;DHT22;26030;51.164;17.100;2023-02-21T11:08:39;22.10;55.20
40323;DHT22;26030;51.164;17.100;2023-02-21T11:13:47;22.10;55.00
40323;DHT22;26030;51.164;17.100;2023-02-21T11:19:03;22.30;54.60
40323;DHT22;26030;51.164;17.100;2023-02-21T11:24:09;22.30;54.30
40323;DHT22;26030;51.164;17.100;2023-02-21T11:29:20;22.40;54.20
40323;DHT22;26030;51.164;17.100;2023-02-21T11:34:28;22.30;54.40
40323;DHT22;26030;51.164;17.100;2023-02-21T11:39:33;22.30;54.60
40323;DHT22;26030;51.164;17.100;2023-02-21T11:44:39;22.20;54.70
40323;DHT22;26030;51.164;17.100;2023-02-21T11:55:12;22.00;54.50
40323;DHT22;26030;51.164;17.100;2023-02-21T12:06:17;22.00;54.50
40323;DHT22;26030;51.164;17.100;2023-02-21T12:33:22;22.00;54.10
40323;DHT22;26030;51.164;17.100;2023-02-21T12:38:46;21.90;54.40
40323;DHT22;26030;51.164;17.100;2023-02-21T12:49:52;22.00;53.90
40323;DHT22;26030;51.164;17.100;2023-02-21T12:55:04;21.90;53.70
40323;DHT22;26030;51.164;17.100;2023-02-21T13:00:24;22.00;54.10
40323;DHT22;26030;51.164;17.100;2023-02-21T13:05:38;22.00;53.50
40323;DHT22;26030;51.164;17.100;2023-02-21T13:16:16;21.90;53.30
40323;DHT22;26030;51.164;17.100;2023-02-21T13:21:35;22.00;53.00
40323;DHT22;26030;51.164;17.100;2023-02-21T13:32:35;22.00;53.00
40323;DHT22;26030;51.164;17.100;2023-02-21T13:37:45;22.00;52.50
40323;DHT22;26030;51.164;17.100;2023-02-21T13:43:19;22.10;53.10
40323;DHT22;26030;51.164;17.100;2023-02-21T13:48:22;22.10;52.70
40323;DHT22;26030;51.164;17.100;2023-02-21T13:53:32;22.00;52.70
40323;DHT22;26030;51.164;17.100;2023-02-21T14:09:54;22.00;53.10
40323;DHT22;26030;51.164;17.100;2023-02-21T14:15:04;22.00;52.50
40323;DHT22;26030;51.164;17.100;2023-02-21T14:20:14;22.00;52.50
40323;DHT22;26030;51.164;17.100;2023-02-21T14:25:20;22.00;52.30
40323;DHT22;26030;51.164;17.100;2023-02-21T14:30:29;22.00;52.30
40323;DHT22;26030;51.164;17.100;2023-02-21T14:35:42;22.10;52.20
40323;DHT22;26030;51.164;17.100;2023-02-21T14:46:36;22.00;53.80
40323;DHT22;26030;51.164;17.100;2023-02-21T14:58:22;21.90;53.10
40323;DHT22;26030;51.164;17.100;2023-02-21T15:03:50;21.90;53.30
40323;DHT22;26030;51.164;17.100;2023-02-21T15:08:42;21.90;53.30
40323;DHT22;26030;51.164;17.100;2023-02-21T15:13:50;21.90;53.10
40323;DHT22;26030;51.164;17.100;2023-02-21T15:19:22;21.90;53.40
40323;DHT22;26030;51.164;17.100;2023-02-21T15:24:31;21.90;53.40
40323;DHT22;26030;51.164;17.100;2023-02-21T15:29:36;21.80;53.80
40323;DHT22;26030;51.164;17.100;2023-02-21T15:34:41;21.80;54.10
40323;DHT22;26030;51.164;17.100;2023-02-21T15:39:49;21.80;54.10
40323;DHT22;26030;51.164;17.100;2023-02-21T15:44:58;21.80;53.80
40323;DHT22;26030;51.164;17.100;2023-02-21T15:55:38;21.80;54.30
40323;DHT22;26030;51.164;17.100;2023-02-21T16:00:47;21.80;53.90
40323;DHT22;26030;51.164;17.100;2023-02-21T16:05:53;21.80;53.90
40323;DHT22;26030;51.164;17.100;2023-02-21T16:11:02;21.80;54.00
40323;DHT22;26030;51.164;17.100;2023-02-21T16:16:07;21.80;53.80
40323;DHT22;26030;51.164;17.100;2023-02-21T16:21:27;21.70;53.60
40323;DHT22;26030;51.164;17.100;2023-02-21T16:26:32;21.70;53.60
40323;DHT22;26030;51.164;17.100;2023-02-21T16:31:37;21.70;53.40
40323;DHT22;26030;51.164;17.100;2023-02-21T16:36:44;21.70;53.50
40323;DHT22;26030;51.164;17.100;2023-02-21T16:41:48;21.60;53.30
40323;DHT22;26030;51.164;17.100;2023-02-21T16:46:55;21.80;53.30
40323;DHT22;26030;51.164;17.100;2023-02-21T16:58:07;22.30;51.60
40323;DHT22;26030;51.164;17.100;2023-02-21T17:03:27;22.50;51.00
40323;DHT22;26030;51.164;17.100;2023-02-21T17:08:31;22.70;50.60
40323;DHT22;26030;51.164;17.100;2023-02-21T17:13:37;22.90;50.50
40323;DHT22;26030;51.164;17.100;2023-02-21T17:18:43;22.90;50.80
40323;DHT22;26030;51.164;17.100;2023-02-21T17:23:48;22.90;50.10
40323;DHT22;26030;51.164;17.100;2023-02-21T17:28:52;23.00;50.10
40323;DHT22;26030;51.164;17.100;2023-02-21T17:33:57;23.10;50.00
40323;DHT22;26030;51.164;17.100;2023-02-21T17:39:02;23.10;50.10
40323;DHT22;26030;51.164;17.100;2023-02-21T17:44:09;23.20;50.30
40323;DHT22;26030;51.164;17.100;2023-02-21T17:49:15;23.40;49.60
40323;DHT22;26030;51.164;17.100;2023-02-21T17:54:29;23.60;49.10
40323;DHT22;26030;51.164;17.100;2023-02-21T17:59:36;23.50;49.30
40323;DHT22;26030;51.164;17.100;2023-02-21T18:04:44;23.60;49.50
40323;DHT22;26030;51.164;17.100;2023-02-21T18:09:53;23.50;49.40
40323;DHT22;26030;51.164;17.100;2023-02-21T18:14:59;23.50;49.80
40323;DHT22;26030;51.164;17.100;2023-02-21T18:20:07;23.50;49.80
40323;DHT22;26030;51.164;17.100;2023-02-21T18:25:15;23.40;49.80
40323;DHT22;26030;51.164;17.100;2023-02-21T18:30:21;23.30;50.00
40323;DHT22;26030;51.164;17.100;2023-02-21T18:35:27;23.30;50.50
40323;DHT22;26030;51.164;17.100;2023-02-21T18:40:33;23.20;50.30
40323;DHT22;26030;51.164;17.100;2023-02-21T18:45:42;23.20;50.60
40323;DHT22;26030;51.164;17.100;2023-02-21T18:50:49;23.10;50.40
40323;DHT22;26030;51.164;17.100;2023-02-21T18:55:59;23.00;50.40
40323;DHT22;26030;51.164;17.100;2023-02-21T19:01:05;23.00;50.60
40323;DHT22;26030;51.164;17.100;2023-02-21T19:06:14;22.90;50.80
40323;DHT22;26030;51.164;17.100;2023-02-21T19:11:21;22.80;51.00
40323;DHT22;26030;51.164;17.100;2023-02-21T19:16:27;22.80;51.30
40323;DHT22;26030;51.164;17.100;2023-02-21T19:21:36;22.60;51.80
40323;DHT22;26030;51.164;17.100;2023-02-21T19:26:42;22.60;51.80
40323;DHT22;26030;51.164;17.100;2023-02-21T19:31:48;22.60;51.70
40323;DHT22;26030;51.164;17.100;2023-02-21T19:36:55;22.70;52.10
40323;DHT22;26030;51.164;17.100;2023-02-21T19:42:02;22.70;52.10
40323;DHT22;26030;51.164;17.100;2023-02-21T19:47:08;22.70;52.30
40323;DHT22;26030;51.164;17.100;2023-02-21T19:52:15;22.70;52.80
40323;DHT22;26030;51.164;17.100;2023-02-21T19:57:24;22.50;52.70
40323;DHT22;26030;51.164;17.100;2023-02-21T20:02:30;22.40;52.90
40323;DHT22;26030;51.164;17.100;2023-02-21T20:07:39;22.30;52.90
40323;DHT22;26030;51.164;17.100;2023-02-21T20:12:47;22.40;52.90
40323;DHT22;26030;51.164;17.100;2023-02-21T20:18:00;22.40;52.70
40323;DHT22;26030;51.164;17.100;2023-02-21T20:23:09;22.40;52.50
40323;DHT22;26030;51.164;17.100;2023-02-21T20:28:19;22.30;53.00
40323;DHT22;26030;51.164;17.100;2023-02-21T20:33:27;22.20;52.50
40323;DHT22;26030;51.164;17.100;2023-02-21T20:38:37;22.20;53.00
40323;DHT22;26030;51.164;17.100;2023-02-21T20:43:43;22.10;53.40
40323;DHT22;26030;51.164;17.100;2023-02-21T20:48:56;22.30;52.80
40323;DHT22;26030;51.164;17.100;2023-02-21T20:54:06;22.10;53.30
40323;DHT22;26030;51.164;17.100;2023-02-21T20:59:19;22.10;53.30
40323;DHT22;26030;51.164;17.100;2023-02-21T21:04:43;22.10;53.10
40323;DHT22;26030;51.164;17.100;2023-02-21T21:09:51;22.10;52.90
40323;DHT22;26030;51.164;17.100;2023-02-21T21:14:57;22.10;53.00
40323;DHT22;26030;51.164;17.100;2023-02-21T21:20:03;21.90;53.50
40323;DHT22;26030;51.164;17.100;2023-02-21T21:25:14;22.00;53.10
40323;DHT22;26030;51.164;17.100;2023-02-21T21:30:23;22.00;53.10
40323;DHT22;26030;51.164;17.100;2023-02-21T21:35:28;22.00;53.30
40323;DHT22;26030;51.164;17.100;2023-02-21T21:40:35;22.00;53.30
40323;DHT22;26030;51.164;17.100;2023-02-21T21:45:43;21.90;53.70
40323;DHT22;26030;51.164;17.100;2023-02-21T21:50:49;21.90;53.70
40323;DHT22;26030;51.164;17.100;2023-02-21T21:55:55;21.90;53.40
40323;DHT22;26030;51.164;17.100;2023-02-21T22:01:01;21.90;53.60
40323;DHT22;26030;51.164;17.100;2023-02-21T22:06:12;21.80;53.40
40323;DHT22;26030;51.164;17.100;2023-02-21T22:11:17;21.80;53.40
40323;DHT22;26030;51.164;17.100;2023-02-21T22:16:25;22.20;53.00
40323;DHT22;26030;51.164;17.100;2023-02-21T22:21:29;22.50;52.50
40323;DHT22;26030;51.164;17.100;2023-02-21T22:26:34;22.70;51.70
40323;DHT22;26030;51.164;17.100;2023-02-21T22:31:42;22.90;51.50
40323;DHT22;26030;51.164;17.100;2023-02-21T22:36:52;23.00;51.60
40323;DHT22;26030;51.164;17.100;2023-02-21T22:41:57;23.10;51.30
40323;DHT22;26030;51.164;17.100;2023-02-21T22:47:01;23.10;51.10
40323;DHT22;26030;51.164;17.100;2023-02-21T22:52:05;23.10;51.20
40323;DHT22;26030;51.164;17.100;2023-02-21T22:57:09;23.10;51.30
40323;DHT22;26030;51.164;17.100;2023-02-21T23:02:13;23.10;51.40
40323;DHT22;26030;51.164;17.100;2023-02-21T23:07:19;23.20;51.20
40323;DHT22;26030;51.164;17.100;2023-02-21T23:12:27;23.30;51.10
40323;DHT22;26030;51.164;17.100;2023-02-21T23:17:31;23.30;51.10
40323;DHT22;26030;51.164;17.100;2023-02-21T23:22:35;23.30;50.70
40323;DHT22;26030;51.164;17.100;2023-02-21T23:27:39;23.20;50.70
40323;DHT22;26030;51.164;17.100;2023-02-21T23:32:43;23.20;50.70
40323;DHT22;26030;51.164;17.100;2023-02-21T23:37:49;23.10;50.80
40323;DHT22;26030;51.164;17.100;2023-02-21T23:42:56;23.00;50.80
40323;DHT22;26030;51.164;17.100;2023-02-21T23:48:00;22.90;51.20
40323;DHT22;26030;51.164;17.100;2023-02-21T23:53:04;23.10;51.90
40323;DHT22;26030;51.164;17.100;2023-02-21T23:58:10;23.10;51.60
